sensor_id;sensor_type;location;lat;lon;timestamp;temperature;humidity
2995;DHT22;35277;49.890;8.222;2023-06-22T00:00:53;28.50;72.90
2995;DHT22;35277;49.890;8.222;2023-06-22T00:03:22;28.50;72.90
2995;DHT22;35277;49.890;8.222;2023-06-22T00:05:52;28.50;72.80
2995;DHT22;35277;49.890;8.222;2023-06-22T00:08:20;28.50;72.80
2995;DHT22;35277;49.890;8.222;2023-06-22T00:10:48;28.50;72.80
2995;DHT22;35277;49.890;8.222;2023-06-22T00:13:16;28.50;72.80
2995;DHT22;35277;49.890;8.222;2023-06-22T00:15:45;28.50;72.80
2995;DHT22;35277;49.890;8.222;2023-06-22T00:18:12;28.50;73.60
2995;DHT22;35277;49.890;8.222;2023-06-22T00:20:41;28.50;72.80
2995;DHT22;35277;49.890;8.222;2023-06-22T00:23:11;28.50;72.80
2995;DHT22;35277;49.890;8.222;2023-06-22T00:25:43;28.50;72.80
2995;DHT22;35277;49.890;8.222;2023-06-22T00:28:11;28.50;72.80
2995;DHT22;35277;49.890;8.222;2023-06-22T00:30:39;28.50;72.80
2995;DHT22;35277;49.890;8.222;2023-06-22T00:33:07;28.50;72.80
2995;DHT22;35277;49.890;8.222;2023-06-22T00:35:34;28.50;72.80
2995;DHT22;35277;49.890;8.222;2023-06-22T00:38:02;28.50;72.70
2995;DHT22;35277;49.890;8.222;2023-06-22T00:40:33;28.50;72.80
2995;DHT22;35277;49.890;8.222;2023-06-22T00:43:01;28.50;72.70
2995;DHT22;35277;49.890;8.222;2023-06-22T00:45:29;28.50;72.70
2995;DHT22;35277;49.890;8.222;2023-06-22T00:47:57;28.50;72.70
2995;DHT22;35277;49.890;8.222;2023-06-22T00:50:26;28.50;72.70
2995;DHT22;35277;49.890;8.222;2023-06-22T00:52:58;28.50;72.70
2995;DHT22;35277;49.890;8.222;2023-06-22T00:55:27;28.50;72.70
2995;DHT22;35277;49.890;8.222;2023-06-22T00:57:56;28.50;72.70
2995;DHT22;35277;49.890;8.222;2023-06-22T01:00:24;28.50;72.70
2995;DHT22;35277;49.890;8.222;2023-06-22T01:02:53;28.50;72.70
2995;DHT22;35277;49.890;8.222;2023-06-22T01:05:22;28.50;72.60
2995;DHT22;35277;49.890;8.222;2023-06-22T01:08:00;28.40;72.50
2995;DHT22;35277;49.890;8.222;2023-06-22T01:10:39;28.50;72.60
2995;DHT22;35277;49.890;8.222;2023-06-22T01:13:16;28.50;72.70
2995;DHT22;35277;49.890;8.222;2023-06-22T01:15:48;28.50;72.70
2995;DHT22;35277;49.890;8.222;2023-06-22T01:18:18;28.50;72.70
2995;DHT22;35277;49.890;8.222;2023-06-22T01:20:47;28.50;72.70
2995;DHT22;35277;49.890;8.222;2023-06-22T01:23:21;28.50;72.80
2995;DHT22;35277;49.890;8.222;2023-06-22T01:26:01;28.50;72.90
2995;DHT22;35277;49.890;8.222;2023-06-22T01:28:44;28.50;72.90
2995;DHT22;35277;49.890;8.222;2023-06-22T01:31:14;28.50;73.00
2995;DHT22;35277;49.890;8.222;2023-06-22T01:33:45;28.50;73.00
2995;DHT22;35277;49.890;8.222;2023-06-22T01:36:14;28.40;72.90
2995;DHT22;35277;49.890;8.222;2023-06-22T01:38:46;28.50;73.10
2995;DHT22;35277;49.890;8.222;2023-06-22T01:41:15;28.50;73.10
2995;DHT22;35277;49.890;8.222;2023-06-22T01:43:47;28.50;73.10
2995;DHT22;35277;49.890;8.222;2023-06-22T01:46:16;28.50;73.20
2995;DHT22;35277;49.890;8.222;2023-06-22T01:48:46;28.50;73.20
2995;DHT22;35277;49.890;8.222;2023-06-22T01:51:15;28.50;74.00
2995;DHT22;35277;49.890;8.222;2023-06-22T01:53:43;28.50;73.30
2995;DHT22;35277;49.890;8.222;2023-06-22T01:56:11;28.50;73.30
2995;DHT22;35277;49.890;8.222;2023-06-22T01:58:46;28.50;73.30
2995;DHT22;35277;49.890;8.222;2023-06-22T02:01:26;28.50;73.30
2995;DHT22;35277;49.890;8.222;2023-06-22T02:04:01;28.50;73.30
2995;DHT22;35277;49.890;8.222;2023-06-22T02:06:36;28.50;73.40
2995;DHT22;35277;49.890;8.222;2023-06-22T02:09:08;28.50;73.40
2995;DHT22;35277;49.890;8.222;2023-06-22T02:11:39;28.50;73.40
2995;DHT22;35277;49.890;8.222;2023-06-22T02:14:10;28.50;73.50
2995;DHT22;35277;49.890;8.222;2023-06-22T02:16:40;28.50;73.50
2995;DHT22;35277;49.890;8.222;2023-06-22T02:19:09;28.50;73.50
2995;DHT22;35277;49.890;8.222;2023-06-22T02:21:37;28.50;73.50
2995;DHT22;35277;49.890;8.222;2023-06-22T02:24:05;28.50;73.50
2995;DHT22;35277;49.890;8.222;2023-06-22T02:26:33;28.50;73.50
2995;DHT22;35277;49.890;8.222;2023-06-22T02:29:01;28.50;74.30
2995;DHT22;35277;49.890;8.222;2023-06-22T02:31:30;28.50;73.50
2995;DHT22;35277;49.890;8.222;2023-06-22T02:33:58;28.50;73.50
2995;DHT22;35277;49.890;8.222;2023-06-22T02:36:26;28.50;73.50
2995;DHT22;35277;49.890;8.222;2023-06-22T02:38:59;28.50;73.50
2995;DHT22;35277;49.890;8.222;2023-06-22T02:41:29;28.50;73.50
2995;DHT22;35277;49.890;8.222;2023-06-22T02:43:57;28.50;73.50
2995;DHT22;35277;49.890;8.222;2023-06-22T02:46:25;28.50;73.50
2995;DHT22;35277;49.890;8.222;2023-06-22T02:48:54;28.50;73.50
2995;DHT22;35277;49.890;8.222;2023-06-22T02:51:22;28.50;73.60
2995;DHT22;35277;49.890;8.222;2023-06-22T02:53:50;28.50;73.50
2995;DHT22;35277;49.890;8.222;2023-06-22T02:56:25;28.50;73.60
2995;DHT22;35277;49.890;8.222;2023-06-22T02:58:57;28.50;73.60
2995;DHT22;35277;49.890;8.222;2023-06-22T03:01:31;28.50;73.60
2995;DHT22;35277;49.890;8.222;2023-06-22T03:04:06;28.50;73.60
2995;DHT22;35277;49.890;8.222;2023-06-22T03:06:35;28.50;73.60
2995;DHT22;35277;49.890;8.222;2023-06-22T03:09:04;28.50;73.60
2995;DHT22;35277;49.890;8.222;2023-06-22T03:11:33;28.50;73.70
2995;DHT22;35277;49.890;8.222;2023-06-22T03:14:02;28.50;73.70
2995;DHT22;35277;49.890;8.222;2023-06-22T03:16:30;28.50;73.70
2995;DHT22;35277;49.890;8.222;2023-06-22T03:18:58;28.50;73.70
2995;DHT22;35277;49.890;8.222;2023-06-22T03:21:28;28.50;73.70
2995;DHT22;35277;49.890;8.222;2023-06-22T03:23:59;28.50;73.70
2995;DHT22;35277;49.890;8.222;2023-06-22T03:26:27;28.40;73.60
2995;DHT22;35277;49.890;8.222;2023-06-22T03:28:56;28.50;73.70
2995;DHT22;35277;49.890;8.222;2023-06-22T03:31:24;28.50;73.80
2995;DHT22;35277;49.890;8.222;2023-06-22T03:33:52;28.50;73.80
2995;DHT22;35277;49.890;8.222;2023-06-22T03:36:22;28.50;73.80
2995;DHT22;35277;49.890;8.222;2023-06-22T03:38:51;28.50;73.80
2995;DHT22;35277;49.890;8.222;2023-06-22T03:41:19;28.50;73.90
2995;DHT22;35277;49.890;8.222;2023-06-22T03:43:48;28.50;73.90
2995;DHT22;35277;49.890;8.222;2023-06-22T03:46:16;28.50;73.90
2995;DHT22;35277;49.890;8.222;2023-06-22T03:48:44;28.50;74.00
2995;DHT22;35277;49.890;8.222;2023-06-22T03:51:12;28.50;74.00
2995;DHT22;35277;49.890;8.222;2023-06-22T03:53:40;28.50;74.00
2995;DHT22;35277;49.890;8.222;2023-06-22T03:56:09;28.50;74.00
2995;DHT22;35277;49.890;8.222;2023-06-22T03:58:37;28.50;74.10
2995;DHT22;35277;49.890;8.222;2023-06-22T04:01:09;28.50;74.10
2995;DHT22;35277;49.890;8.222;2023-06-22T04:03:38;28.50;74.20
2995;DHT22;35277;49.890;8.222;2023-06-22T04:06:06;28.50;74.20
2995;DHT22;35277;49.890;8.222;2023-06-22T04:08:34;28.50;74.20
2995;DHT22;35277;49.890;8.222;2023-06-22T04:11:02;28.50;74.30
2995;DHT22;35277;49.890;8.222;2023-06-22T04:13:31;28.50;74.20
2995;DHT22;35277;49.890;8.222;2023-06-22T04:15:59;28.50;74.30
2995;DHT22;35277;49.890;8.222;2023-06-22T04:18:27;28.50;74.20
2995;DHT22;35277;49.890;8.222;2023-06-22T04:20:55;28.50;74.30
2995;DHT22;35277;49.890;8.222;2023-06-22T04:23:23;28.50;74.20
2995;DHT22;35277;49.890;8.222;2023-06-22T04:25:51;28.50;74.20
2995;DHT22;35277;49.890;8.222;2023-06-22T04:28:19;28.50;74.20
2995;DHT22;35277;49.890;8.222;2023-06-22T04:30:48;28.50;74.20
2995;DHT22;35277;49.890;8.222;2023-06-22T04:33:17;28.50;74.20
2995;DHT22;35277;49.890;8.222;2023-06-22T04:35:45;28.50;74.20
2995;DHT22;35277;49.890;8.222;2023-06-22T04:38:13;28.50;74.10
2995;DHT22;35277;49.890;8.222;2023-06-22T04:40:41;28.50;74.10
2995;DHT22;35277;49.890;8.222;2023-06-22T04:43:09;28.50;74.10
2995;DHT22;35277;49.890;8.222;2023-06-22T04:45:37;28.50;74.10
2995;DHT22;35277;49.890;8.222;2023-06-22T04:48:06;28.50;74.20
2995;DHT22;35277;49.890;8.222;2023-06-22T04:50:36;28.50;74.50
2995;DHT22;35277;49.890;8.222;2023-06-22T04:53:05;28.40;74.80
2995;DHT22;35277;49.890;8.222;2023-06-22T04:55:34;28.40;75.50
2995;DHT22;35277;49.890;8.222;2023-06-22T04:58:04;28.30;75.80
2995;DHT22;35277;49.890;8.222;2023-06-22T05:00:32;28.20;76.40
2995;DHT22;35277;49.890;8.222;2023-06-22T05:03:03;28.10;76.70
2995;DHT22;35277;49.890;8.222;2023-06-22T05:05:47;28.00;77.00
2995;DHT22;35277;49.890;8.222;2023-06-22T05:08:16;27.90;77.20
2995;DHT22;35277;49.890;8.222;2023-06-22T05:10:44;27.90;77.50
2995;DHT22;35277;49.890;8.222;2023-06-22T05:13:31;27.90;77.80
2995;DHT22;35277;49.890;8.222;2023-06-22T05:15:59;27.80;77.90
2995;DHT22;35277;49.890;8.222;2023-06-22T05:18:29;27.80;78.10
2995;DHT22;35277;49.890;8.222;2023-06-22T05:20:59;27.80;78.30
2995;DHT22;35277;49.890;8.222;2023-06-22T05:23:27;27.70;78.50
2995;DHT22;35277;49.890;8.222;2023-06-22T05:25:54;27.70;78.60
2995;DHT22;35277;49.890;8.222;2023-06-22T05:28:24;27.70;78.60
2995;DHT22;35277;49.890;8.222;2023-06-22T05:30:52;27.70;78.80
2995;DHT22;35277;49.890;8.222;2023-06-22T05:33:20;27.70;78.90
2995;DHT22;35277;49.890;8.222;2023-06-22T05:35:48;27.70;78.90
2995;DHT22;35277;49.890;8.222;2023-06-22T05:38:17;27.70;78.80
2995;DHT22;35277;49.890;8.222;2023-06-22T05:40:45;27.70;78.80
2995;DHT22;35277;49.890;8.222;2023-06-22T05:43:13;27.80;78.90
2995;DHT22;35277;49.890;8.222;2023-06-22T05:45:41;27.80;78.90
2995;DHT22;35277;49.890;8.222;2023-06-22T05:48:08;27.80;78.90
2995;DHT22;35277;49.890;8.222;2023-06-22T05:50:36;27.80;78.90
2995;DHT22;35277;49.890;8.222;2023-06-22T05:53:04;27.80;78.90
2995;DHT22;35277;49.890;8.222;2023-06-22T05:55:34;27.80;78.80
2995;DHT22;35277;49.890;8.222;2023-06-22T05:58:02;27.90;78.90
2995;DHT22;35277;49.890;8.222;2023-06-22T06:00:31;27.90;78.90
2995;DHT22;35277;49.890;8.222;2023-06-22T06:02:59;27.90;78.90
2995;DHT22;35277;49.890;8.222;2023-06-22T06:05:30;27.90;79.00
2995;DHT22;35277;49.890;8.222;2023-06-22T06:07:58;27.90;79.00
2995;DHT22;35277;49.890;8.222;2023-06-22T06:10:27;27.90;79.00
2995;DHT22;35277;49.890;8.222;2023-06-22T06:12:58;28.00;79.10
2995;DHT22;35277;49.890;8.222;2023-06-22T06:15:28;28.00;79.20
2995;DHT22;35277;49.890;8.222;2023-06-22T06:17:56;28.00;79.10
2995;DHT22;35277;49.890;8.222;2023-06-22T06:20:25;28.00;79.10
2995;DHT22;35277;49.890;8.222;2023-06-22T06:22:55;28.00;79.20
2995;DHT22;35277;49.890;8.222;2023-06-22T06:25:23;28.00;79.10
2995;DHT22;35277;49.890;8.222;2023-06-22T06:27:51;28.00;79.10
2995;DHT22;35277;49.890;8.222;2023-06-22T06:30:22;28.00;79.10
2995;DHT22;35277;49.890;8.222;2023-06-22T06:32:50;28.00;79.10
2995;DHT22;35277;49.890;8.222;2023-06-22T06:35:18;28.10;79.20
2995;DHT22;35277;49.890;8.222;2023-06-22T06:37:50;28.10;79.10
2995;DHT22;35277;49.890;8.222;2023-06-22T06:40:18;28.10;79.20
2995;DHT22;35277;49.890;8.222;2023-06-22T06:42:47;28.10;79.10
2995;DHT22;35277;49.890;8.222;2023-06-22T06:45:17;28.10;79.10
2995;DHT22;35277;49.890;8.222;2023-06-22T06:47:47;28.10;79.10
2995;DHT22;35277;49.890;8.222;2023-06-22T06:50:15;28.20;79.20
2995;DHT22;35277;49.890;8.222;2023-06-22T06:52:43;28.20;79.20
2995;DHT22;35277;49.890;8.222;2023-06-22T06:55:12;28.20;79.10
2995;DHT22;35277;49.890;8.222;2023-06-22T06:57:41;28.20;79.20
2995;DHT22;35277;49.890;8.222;2023-06-22T07:00:10;28.20;79.20
2995;DHT22;35277;49.890;8.222;2023-06-22T07:02:42;28.20;79.10
2995;DHT22;35277;49.890;8.222;2023-06-22T07:05:12;28.20;79.10
2995;DHT22;35277;49.890;8.222;2023-06-22T07:07:40;28.20;79.10
2995;DHT22;35277;49.890;8.222;2023-06-22T07:10:10;28.30;79.10
2995;DHT22;35277;49.890;8.222;2023-06-22T07:12:38;28.30;79.00
2995;DHT22;35277;49.890;8.222;2023-06-22T07:15:07;28.30;79.00
2995;DHT22;35277;49.890;8.222;2023-06-22T07:17:36;28.30;79.00
2995;DHT22;35277;49.890;8.222;2023-06-22T07:20:05;28.30;79.00
2995;DHT22;35277;49.890;8.222;2023-06-22T07:22:38;28.30;78.90
2995;DHT22;35277;49.890;8.222;2023-06-22T07:25:07;28.30;78.90
2995;DHT22;35277;49.890;8.222;2023-06-22T07:27:37;28.30;78.90
2995;DHT22;35277;49.890;8.222;2023-06-22T07:30:06;28.30;78.90
2995;DHT22;35277;49.890;8.222;2023-06-22T07:32:34;28.30;78.90
2995;DHT22;35277;49.890;8.222;2023-06-22T07:35:02;28.30;79.10
2995;DHT22;35277;49.890;8.222;2023-06-22T07:37:30;28.30;78.90
2995;DHT22;35277;49.890;8.222;2023-06-22T07:40:01;28.30;78.90
2995;DHT22;35277;49.890;8.222;2023-06-22T07:42:32;28.30;78.90
2995;DHT22;35277;49.890;8.222;2023-06-22T07:45:01;28.30;78.80
2995;DHT22;35277;49.890;8.222;2023-06-22T07:47:29;28.30;78.80
2995;DHT22;35277;49.890;8.222;2023-06-22T07:50:00;28.30;78.80
2995;DHT22;35277;49.890;8.222;2023-06-22T07:52:29;28.40;78.90
2995;DHT22;35277;49.890;8.222;2023-06-22T07:54:57;28.40;78.90
2995;DHT22;35277;49.890;8.222;2023-06-22T07:57:26;28.40;78.90
2995;DHT22;35277;49.890;8.222;2023-06-22T08:00:00;28.30;78.80
2995;DHT22;35277;49.890;8.222;2023-06-22T08:02:38;28.40;78.90
2995;DHT22;35277;49.890;8.222;2023-06-22T08:05:07;28.40;78.80
2995;DHT22;35277;49.890;8.222;2023-06-22T08:07:47;28.40;78.90
2995;DHT22;35277;49.890;8.222;2023-06-22T08:10:16;28.40;78.80
2995;DHT22;35277;49.890;8.222;2023-06-22T08:12:45;28.50;78.80
2995;DHT22;35277;49.890;8.222;2023-06-22T08:15:13;28.50;78.70
2995;DHT22;35277;49.890;8.222;2023-06-22T08:17:41;28.50;79.50
2995;DHT22;35277;49.890;8.222;2023-06-22T08:20:10;28.50;78.70
2995;DHT22;35277;49.890;8.222;2023-06-22T08:22:39;28.50;78.60
2995;DHT22;35277;49.890;8.222;2023-06-22T08:25:08;28.50;78.60
2995;DHT22;35277;49.890;8.222;2023-06-22T08:27:36;28.50;78.60
2995;DHT22;35277;49.890;8.222;2023-06-22T08:30:06;28.50;78.60
2995;DHT22;35277;49.890;8.222;2023-06-22T08:32:35;28.50;78.50
2995;DHT22;35277;49.890;8.222;2023-06-22T08:35:03;28.50;78.40
2995;DHT22;35277;49.890;8.222;2023-06-22T08:37:33;28.60;78.50
2995;DHT22;35277;49.890;8.222;2023-06-22T08:40:05;28.60;78.40
2995;DHT22;35277;49.890;8.222;2023-06-22T08:42:34;28.60;78.40
2995;DHT22;35277;49.890;8.222;2023-06-22T08:45:02;28.60;78.30
2995;DHT22;35277;49.890;8.222;2023-06-22T08:47:31;28.60;78.30
2995;DHT22;35277;49.890;8.222;2023-06-22T08:49:59;28.60;78.20
2995;DHT22;35277;49.890;8.222;2023-06-22T08:52:29;28.60;78.10
2995;DHT22;35277;49.890;8.222;2023-06-22T08:54:57;28.60;78.10
2995;DHT22;35277;49.890;8.222;2023-06-22T08:57:25;28.60;78.10
2995;DHT22;35277;49.890;8.222;2023-06-22T08:59:53;28.60;78.00
2995;DHT22;35277;49.890;8.222;2023-06-22T09:02:25;28.70;78.10
2995;DHT22;35277;49.890;8.222;2023-06-22T09:04:54;28.60;78.00
2995;DHT22;35277;49.890;8.222;2023-06-22T09:07:22;28.60;77.90
2995;DHT22;35277;49.890;8.222;2023-06-22T09:09:51;28.70;78.00
2995;DHT22;35277;49.890;8.222;2023-06-22T09:12:20;28.70;78.00
2995;DHT22;35277;49.890;8.222;2023-06-22T09:14:52;28.70;77.90
2995;DHT22;35277;49.890;8.222;2023-06-22T09:17:20;28.70;78.00
2995;DHT22;35277;49.890;8.222;2023-06-22T09:19:48;28.70;78.00
2995;DHT22;35277;49.890;8.222;2023-06-22T09:22:17;28.70;78.00
2995;DHT22;35277;49.890;8.222;2023-06-22T09:24:45;28.70;78.10
2995;DHT22;35277;49.890;8.222;2023-06-22T09:27:14;28.70;78.10
2995;DHT22;35277;49.890;8.222;2023-06-22T09:29:41;28.70;78.10
2995;DHT22;35277;49.890;8.222;2023-06-22T09:32:09;28.80;78.10
2995;DHT22;35277;49.890;8.222;2023-06-22T09:34:37;28.80;78.10
2995;DHT22;35277;49.890;8.222;2023-06-22T09:37:05;28.80;78.20
2995;DHT22;35277;49.890;8.222;2023-06-22T09:39:34;28.80;78.10
2995;DHT22;35277;49.890;8.222;2023-06-22T09:42:04;28.80;78.10
2995;DHT22;35277;49.890;8.222;2023-06-22T09:44:32;28.80;78.10
2995;DHT22;35277;49.890;8.222;2023-06-22T09:47:00;28.80;78.10
2995;DHT22;35277;49.890;8.222;2023-06-22T09:49:28;28.80;78.10
2995;DHT22;35277;49.890;8.222;2023-06-22T09:52:13;28.80;78.10
2995;DHT22;35277;49.890;8.222;2023-06-22T09:54:42;28.80;78.10
2995;DHT22;35277;49.890;8.222;2023-06-22T09:57:10;28.80;78.10
2995;DHT22;35277;49.890;8.222;2023-06-22T09:59:38;28.80;78.10
2995;DHT22;35277;49.890;8.222;2023-06-22T10:02:06;28.80;78.10
2995;DHT22;35277;49.890;8.222;2023-06-22T10:04:35;28.80;78.10
2995;DHT22;35277;49.890;8.222;2023-06-22T10:07:04;28.80;78.10
2995;DHT22;35277;49.890;8.222;2023-06-22T10:09:32;28.90;78.20
2995;DHT22;35277;49.890;8.222;2023-06-22T10:12:01;28.80;78.10
2995;DHT22;35277;49.890;8.222;2023-06-22T10:14:29;28.90;78.20
2995;DHT22;35277;49.890;8.222;2023-06-22T10:16:57;28.90;78.20
2995;DHT22;35277;49.890;8.222;2023-06-22T10:19:26;28.90;78.30
2995;DHT22;35277;49.890;8.222;2023-06-22T10:21:53;28.90;78.20
2995;DHT22;35277;49.890;8.222;2023-06-22T10:24:22;28.90;78.30
2995;DHT22;35277;49.890;8.222;2023-06-22T10:26:49;28.90;78.30
2995;DHT22;35277;49.890;8.222;2023-06-22T10:29:20;28.90;78.30
2995;DHT22;35277;49.890;8.222;2023-06-22T10:31:48;28.90;78.30
2995;DHT22;35277;49.890;8.222;2023-06-22T10:34:16;28.90;78.20
2995;DHT22;35277;49.890;8.222;2023-06-22T10:36:43;28.90;78.30
2995;DHT22;35277;49.890;8.222;2023-06-22T10:39:14;28.90;78.20
2995;DHT22;35277;49.890;8.222;2023-06-22T10:41:41;28.90;78.20
2995;DHT22;35277;49.890;8.222;2023-06-22T10:44:09;28.90;78.20
2995;DHT22;35277;49.890;8.222;2023-06-22T10:46:40;28.90;78.20
2995;DHT22;35277;49.890;8.222;2023-06-22T10:49:07;29.00;78.30
2995;DHT22;35277;49.890;8.222;2023-06-22T10:51:35;28.90;78.20
2995;DHT22;35277;49.890;8.222;2023-06-22T10:54:03;28.90;78.20
2995;DHT22;35277;49.890;8.222;2023-06-22T10:56:31;29.00;78.20
2995;DHT22;35277;49.890;8.222;2023-06-22T10:59:00;29.00;78.20
2995;DHT22;35277;49.890;8.222;2023-06-22T11:01:28;29.00;78.20
2995;DHT22;35277;49.890;8.222;2023-06-22T11:04:04;29.00;78.10
2995;DHT22;35277;49.890;8.222;2023-06-22T11:06:32;29.00;78.10
2995;DHT22;35277;49.890;8.222;2023-06-22T11:09:00;29.00;78.10
2995;DHT22;35277;49.890;8.222;2023-06-22T11:11:48;29.00;78.10
2995;DHT22;35277;49.890;8.222;2023-06-22T11:14:16;29.00;78.10
2995;DHT22;35277;49.890;8.222;2023-06-22T11:16:44;29.00;78.00
2995;DHT22;35277;49.890;8.222;2023-06-22T11:19:17;29.00;78.00
2995;DHT22;35277;49.890;8.222;2023-06-22T11:21:45;29.00;77.90
2995;DHT22;35277;49.890;8.222;2023-06-22T11:24:13;29.00;77.90
2995;DHT22;35277;49.890;8.222;2023-06-22T11:26:42;29.00;77.90
2995;DHT22;35277;49.890;8.222;2023-06-22T11:29:10;29.00;77.90
2995;DHT22;35277;49.890;8.222;2023-06-22T11:31:53;29.00;77.90
2995;DHT22;35277;49.890;8.222;2023-06-22T11:34:22;29.00;77.90
2995;DHT22;35277;49.890;8.222;2023-06-22T11:36:51;29.00;77.90
2995;DHT22;35277;49.890;8.222;2023-06-22T11:39:19;29.00;77.80
2995;DHT22;35277;49.890;8.222;2023-06-22T11:42:00;29.10;77.90
2995;DHT22;35277;49.890;8.222;2023-06-22T11:44:27;29.10;77.90
2995;DHT22;35277;49.890;8.222;2023-06-22T11:46:55;29.10;77.90
2995;DHT22;35277;49.890;8.222;2023-06-22T11:49:24;29.10;77.90
2995;DHT22;35277;49.890;8.222;2023-06-22T11:51:52;29.10;77.90
2995;DHT22;35277;49.890;8.222;2023-06-22T11:54:20;29.10;77.90
2995;DHT22;35277;49.890;8.222;2023-06-22T11:56:48;29.10;77.90
2995;DHT22;35277;49.890;8.222;2023-06-22T11:59:16;29.10;77.90
2995;DHT22;35277;49.890;8.222;2023-06-22T12:01:44;29.10;77.80
2995;DHT22;35277;49.890;8.222;2023-06-22T12:04:12;29.10;77.90
2995;DHT22;35277;49.890;8.222;2023-06-22T12:06:41;29.20;77.90
2995;DHT22;35277;49.890;8.222;2023-06-22T12:09:10;29.20;77.90
2995;DHT22;35277;49.890;8.222;2023-06-22T12:11:40;29.20;77.90
2995;DHT22;35277;49.890;8.222;2023-06-22T12:14:08;29.20;78.00
2995;DHT22;35277;49.890;8.222;2023-06-22T12:16:36;29.20;77.90
2995;DHT22;35277;49.890;8.222;2023-06-22T12:19:04;29.20;77.90
2995;DHT22;35277;49.890;8.222;2023-06-22T12:21:32;29.20;77.90
2995;DHT22;35277;49.890;8.222;2023-06-22T12:24:01;29.20;77.90
2995;DHT22;35277;49.890;8.222;2023-06-22T12:26:29;29.20;77.90
2995;DHT22;35277;49.890;8.222;2023-06-22T12:28:57;29.20;77.90
2995;DHT22;35277;49.890;8.222;2023-06-22T12:31:25;29.20;77.90
2995;DHT22;35277;49.890;8.222;2023-06-22T12:33:53;29.20;77.90
2995;DHT22;35277;49.890;8.222;2023-06-22T12:36:21;29.30;77.90
2995;DHT22;35277;49.890;8.222;2023-06-22T12:38:48;29.20;77.90
2995;DHT22;35277;49.890;8.222;2023-06-22T12:41:18;29.30;77.90
2995;DHT22;35277;49.890;8.222;2023-06-22T12:43:46;29.20;77.80
2995;DHT22;35277;49.890;8.222;2023-06-22T12:46:14;29.30;77.90
2995;DHT22;35277;49.890;8.222;2023-06-22T12:48:42;29.30;77.90
2995;DHT22;35277;49.890;8.222;2023-06-22T12:51:10;29.30;78.20
2995;DHT22;35277;49.890;8.222;2023-06-22T12:53:37;29.30;78.60
2995;DHT22;35277;49.890;8.222;2023-06-22T12:56:05;29.30;78.90
2995;DHT22;35277;49.890;8.222;2023-06-22T12:58:34;29.30;79.00
2995;DHT22;35277;49.890;8.222;2023-06-22T13:01:03;29.30;79.10
2995;DHT22;35277;49.890;8.222;2023-06-22T13:03:31;29.40;79.30
2995;DHT22;35277;49.890;8.222;2023-06-22T13:05:58;29.40;79.50
2995;DHT22;35277;49.890;8.222;2023-06-22T13:08:26;29.40;79.70
2995;DHT22;35277;49.890;8.222;2023-06-22T13:11:14;29.40;79.80
2995;DHT22;35277;49.890;8.222;2023-06-22T13:13:44;29.50;80.00
2995;DHT22;35277;49.890;8.222;2023-06-22T13:16:12;29.40;80.10
2995;DHT22;35277;49.890;8.222;2023-06-22T13:18:40;29.50;80.30
2995;DHT22;35277;49.890;8.222;2023-06-22T13:21:08;29.50;80.40
2995;DHT22;35277;49.890;8.222;2023-06-22T13:23:35;29.50;80.50
2995;DHT22;35277;49.890;8.222;2023-06-22T13:26:03;29.50;80.60
2995;DHT22;35277;49.890;8.222;2023-06-22T13:28:31;29.50;80.70
2995;DHT22;35277;49.890;8.222;2023-06-22T13:31:00;29.50;80.90
2995;DHT22;35277;49.890;8.222;2023-06-22T13:33:28;29.50;80.90
2995;DHT22;35277;49.890;8.222;2023-06-22T13:35:56;29.50;80.90
2995;DHT22;35277;49.890;8.222;2023-06-22T13:38:24;29.50;81.00
2995;DHT22;35277;49.890;8.222;2023-06-22T13:40:52;29.60;81.10
2995;DHT22;35277;49.890;8.222;2023-06-22T13:43:22;29.60;80.70
2995;DHT22;35277;49.890;8.222;2023-06-22T13:45:50;29.70;80.40
2995;DHT22;35277;49.890;8.222;2023-06-22T13:48:19;29.60;79.90
2995;DHT22;35277;49.890;8.222;2023-06-22T13:50:47;29.70;80.50
2995;DHT22;35277;49.890;8.222;2023-06-22T13:53:15;29.70;79.40
2995;DHT22;35277;49.890;8.222;2023-06-22T13:55:43;29.70;79.10
2995;DHT22;35277;49.890;8.222;2023-06-22T13:58:11;29.70;78.70
2995;DHT22;35277;49.890;8.222;2023-06-22T14:00:39;29.70;78.40
2995;DHT22;35277;49.890;8.222;2023-06-22T14:03:07;29.80;78.20
2995;DHT22;35277;49.890;8.222;2023-06-22T14:05:36;29.70;77.90
2995;DHT22;35277;49.890;8.222;2023-06-22T14:08:04;29.80;77.70
2995;DHT22;35277;49.890;8.222;2023-06-22T14:10:52;29.90;77.40
2995;DHT22;35277;49.890;8.222;2023-06-22T14:13:21;29.90;76.90
2995;DHT22;35277;49.890;8.222;2023-06-22T14:15:49;29.90;76.60
2995;DHT22;35277;49.890;8.222;2023-06-22T14:18:18;29.90;76.50
2995;DHT22;35277;49.890;8.222;2023-06-22T14:20:50;30.00;76.50
2995;DHT22;35277;49.890;8.222;2023-06-22T14:23:17;30.00;76.50
2995;DHT22;35277;49.890;8.222;2023-06-22T14:25:45;29.90;76.50
2995;DHT22;35277;49.890;8.222;2023-06-22T14:28:13;29.90;76.50
2995;DHT22;35277;49.890;8.222;2023-06-22T14:30:43;29.90;77.40
2995;DHT22;35277;49.890;8.222;2023-06-22T14:33:12;29.90;76.70
2995;DHT22;35277;49.890;8.222;2023-06-22T14:35:39;29.80;76.60
2995;DHT22;35277;49.890;8.222;2023-06-22T14:38:09;29.80;76.60
2995;DHT22;35277;49.890;8.222;2023-06-22T14:40:37;29.80;76.70
2995;DHT22;35277;49.890;8.222;2023-06-22T14:43:24;29.70;76.70
2995;DHT22;35277;49.890;8.222;2023-06-22T14:45:52;29.70;76.70
2995;DHT22;35277;49.890;8.222;2023-06-22T14:48:20;29.60;76.70
2995;DHT22;35277;49.890;8.222;2023-06-22T14:50:48;29.70;76.80
2995;DHT22;35277;49.890;8.222;2023-06-22T14:53:17;29.60;76.80
2995;DHT22;35277;49.890;8.222;2023-06-22T14:55:45;29.60;76.80
2995;DHT22;35277;49.890;8.222;2023-06-22T14:58:13;29.60;76.90
2995;DHT22;35277;49.890;8.222;2023-06-22T15:00:41;29.60;76.90
2995;DHT22;35277;49.890;8.222;2023-06-22T15:03:09;29.50;76.90
2995;DHT22;35277;49.890;8.222;2023-06-22T15:05:45;29.50;76.90
2995;DHT22;35277;49.890;8.222;2023-06-22T15:08:13;29.50;76.90
2995;DHT22;35277;49.890;8.222;2023-06-22T15:10:42;29.50;77.00
2995;DHT22;35277;49.890;8.222;2023-06-22T15:13:10;29.50;76.90
2995;DHT22;35277;49.890;8.222;2023-06-22T15:15:39;29.50;77.00
2995;DHT22;35277;49.890;8.222;2023-06-22T15:18:07;29.50;77.00
2995;DHT22;35277;49.890;8.222;2023-06-22T15:20:35;29.50;77.00
2995;DHT22;35277;49.890;8.222;2023-06-22T15:23:03;29.50;77.00
2995;DHT22;35277;49.890;8.222;2023-06-22T15:25:30;29.50;77.00
2995;DHT22;35277;49.890;8.222;2023-06-22T15:28:00;29.50;77.10
2995;DHT22;35277;49.890;8.222;2023-06-22T15:30:27;29.50;77.10
2995;DHT22;35277;49.890;8.222;2023-06-22T15:32:56;29.40;77.00
2995;DHT22;35277;49.890;8.222;2023-06-22T15:35:24;29.40;77.00
2995;DHT22;35277;49.890;8.222;2023-06-22T15:37:51;29.40;77.10
2995;DHT22;35277;49.890;8.222;2023-06-22T15:40:19;29.40;77.10
2995;DHT22;35277;49.890;8.222;2023-06-22T15:42:49;29.40;77.10
2995;DHT22;35277;49.890;8.222;2023-06-22T15:45:20;29.40;77.10
2995;DHT22;35277;49.890;8.222;2023-06-22T15:47:48;29.40;77.20
2995;DHT22;35277;49.890;8.222;2023-06-22T15:50:16;29.40;77.20
2995;DHT22;35277;49.890;8.222;2023-06-22T15:52:44;29.40;77.20
2995;DHT22;35277;49.890;8.222;2023-06-22T15:55:14;29.30;77.20
2995;DHT22;35277;49.890;8.222;2023-06-22T15:57:42;29.40;77.20